createdAt,value
2022-08-26T00:00:56.839Z,3.95
2022-08-26T00:02:59.007Z,4.65
2022-08-26T00:05:00.512Z,3.95
2022-08-26T00:07:02.109Z,3.85
2022-08-26T00:09:04.834Z,4.28
2022-08-26T00:11:10.091Z,4.07
2022-08-26T00:13:12.853Z,4.78
2022-08-26T00:15:16.450Z,4.00
2022-08-26T00:17:18.742Z,4.05
2022-08-26T00:19:21.173Z,3.72
2022-08-26T00:21:22.918Z,4.78
2022-08-26T00:23:25.617Z,4.05
2022-08-26T00:25:30.769Z,4.20
2022-08-26T00:27:37.042Z,3.85
2022-08-26T00:29:40.065Z,4.97
2022-08-26T00:31:42.100Z,4.40
2022-08-26T00:33:43.852Z,4.32
2022-08-26T00:35:47.428Z,3.75
2022-08-26T00:37:49.224Z,4.43
2022-08-26T00:39:50.772Z,5.00
2022-08-26T00:41:54.575Z,4.78
2022-08-26T00:43:56.209Z,4.38
2022-08-26T00:46:10.396Z,4.35
2022-08-26T00:48:14.687Z,4.97
2022-08-26T00:50:20.910Z,4.40
2022-08-26T00:52:24.281Z,4.28
2022-08-26T00:54:30.546Z,5.07
2022-08-26T00:56:38.183Z,4.55
2022-08-26T00:58:43.021Z,4.78
2022-08-26T01:00:45.358Z,4.47
2022-08-26T01:02:48.688Z,5.13
2022-08-26T01:04:57.936Z,5.13
2022-08-26T01:07:00.360Z,4.65
2022-08-26T01:09:02.546Z,4.38
2022-08-26T01:11:05.415Z,4.80
2022-08-26T01:13:11.320Z,4.32
2022-08-26T01:15:17.507Z,5.22
2022-08-26T01:17:19.349Z,4.78
2022-08-26T01:19:32.508Z,5.00
2022-08-26T01:21:41.329Z,4.97
2022-08-26T01:23:47.474Z,4.95
2022-08-26T01:25:55.968Z,5.10
2022-08-26T01:27:59.948Z,4.60
2022-08-26T01:30:02.518Z,4.93
2022-08-26T01:32:05.534Z,4.43
2022-08-26T01:34:17.644Z,5.57
2022-08-26T01:36:21.326Z,4.82
2022-08-26T01:38:23.796Z,4.70
2022-08-26T01:40:32.757Z,5.03
2022-08-26T01:42:34.393Z,5.25
2022-08-26T01:44:43.878Z,5.45
2022-08-26T01:46:48.862Z,4.50
2022-08-26T01:48:55.059Z,4.93
2022-08-26T01:50:57.391Z,5.40
2022-08-26T01:53:02.478Z,4.90
2022-08-26T01:55:04.910Z,4.88
2022-08-26T01:57:07.709Z,5.20
2022-08-26T01:59:13.218Z,4.95
2022-08-26T02:01:15.734Z,4.50
2022-08-26T02:03:18.900Z,5.15
2022-08-26T02:05:22.118Z,5.03
2022-08-26T02:07:26.625Z,5.28
2022-08-26T02:09:28.539Z,5.15
2022-08-26T02:11:33.503Z,5.40
2022-08-26T02:13:40.002Z,5.03
2022-08-26T02:15:44.441Z,4.93
2022-08-26T02:17:47.390Z,4.93
2022-08-26T02:19:50.400Z,5.78
2022-08-26T02:21:52.885Z,5.10
2022-08-26T02:23:56.197Z,5.45
2022-08-26T02:26:08.712Z,5.35
2022-08-26T02:28:12.305Z,5.57
2022-08-26T02:30:21.165Z,4.95
2022-08-26T02:32:23.386Z,5.22
2022-08-26T02:34:32.785Z,5.18
2022-08-26T02:36:34.639Z,5.20
2022-08-26T02:38:36.436Z,5.65
2022-08-26T02:40:41.376Z,5.43
2022-08-26T02:42:43.232Z,5.45
2022-08-26T02:44:44.744Z,5.38
2022-08-26T02:46:47.220Z,5.28
2022-08-26T02:48:48.881Z,5.28
2022-08-26T02:50:50.389Z,5.57
2022-08-26T02:52:53.121Z,5.40
2022-08-26T02:54:54.649Z,5.35
2022-08-26T02:56:56.726Z,5.35
2022-08-26T02:58:58.845Z,5.53
2022-08-26T03:01:01.566Z,5.15
2022-08-26T03:03:06.741Z,5.57
2022-08-26T03:05:08.816Z,6.03
2022-08-26T03:07:10.290Z,5.70
2022-08-26T03:09:15.974Z,5.63
2022-08-26T03:11:20.408Z,5.40
2022-08-26T03:13:23.271Z,5.90
2022-08-26T03:15:24.895Z,5.78
2022-08-26T03:17:26.950Z,6.18
2022-08-26T03:19:28.994Z,5.70
2022-08-26T03:21:33.211Z,5.32
2022-08-26T03:23:35.260Z,5.85
2022-08-26T03:25:36.773Z,6.03
2022-08-26T03:27:38.365Z,5.57
2022-08-26T03:29:58.946Z,5.28
2022-08-26T03:32:01.550Z,5.18
2022-08-26T03:34:04.192Z,5.72
2022-08-26T03:36:07.747Z,6.35
2022-08-26T03:38:10.066Z,5.78
2022-08-26T03:40:12.164Z,5.90
2022-08-26T03:42:14.941Z,6.07
2022-08-26T03:44:16.882Z,6.07
2022-08-26T03:46:20.611Z,6.05
2022-08-26T03:48:22.599Z,5.65
2022-08-26T03:50:25.281Z,5.78
2022-08-26T03:52:30.110Z,6.05
2022-08-26T03:54:31.727Z,6.35
2022-08-26T03:56:33.669Z,6.32
2022-08-26T03:58:35.483Z,6.10
2022-08-26T04:00:36.964Z,6.15
2022-08-26T04:02:38.703Z,6.00
2022-08-26T04:04:40.248Z,6.07
2022-08-26T04:06:43.324Z,5.82
2022-08-26T04:08:46.349Z,5.72
2022-08-26T04:10:47.833Z,5.90
2022-08-26T04:12:53.326Z,5.72
2022-08-26T04:14:54.866Z,5.97
2022-08-26T04:16:58.773Z,5.35
2022-08-26T04:19:00.605Z,6.00
2022-08-26T04:21:02.618Z,5.75
2022-08-26T04:23:09.568Z,6.10
2022-08-26T04:25:12.782Z,5.40
2022-08-26T04:27:14.355Z,5.50
2022-08-26T04:29:23.941Z,6.18
2022-08-26T04:31:26.299Z,6.53
2022-08-26T04:33:32.517Z,5.97
2022-08-26T04:35:35.198Z,6.75
2022-08-26T04:37:36.695Z,6.28
2022-08-26T04:39:38.196Z,6.68
2022-08-26T04:41:40.200Z,6.43
2022-08-26T04:43:41.976Z,6.13
2022-08-26T04:45:43.986Z,5.90
2022-08-26T04:47:46.786Z,6.65
2022-08-26T04:49:48.359Z,6.70
2022-08-26T04:51:49.904Z,6.55
2022-08-26T04:53:51.387Z,6.32
2022-08-26T04:55:55.287Z,6.30
2022-08-26T04:57:57.273Z,7.53
2022-08-26T04:59:58.766Z,7.20
2022-08-26T05:02:01.645Z,6.80
2022-08-26T05:04:05.015Z,6.93
2022-08-26T05:06:09.703Z,7.03
2022-08-26T05:08:12.938Z,6.88
2022-08-26T05:10:14.679Z,6.10
2022-08-26T05:12:16.425Z,6.72
2022-08-26T05:14:18.366Z,6.65
2022-08-26T05:16:19.988Z,6.35
2022-08-26T05:18:24.211Z,6.50
2022-08-26T05:20:26.316Z,6.60
2022-08-26T05:22:27.850Z,6.68
2022-08-26T05:24:30.202Z,6.38
2022-08-26T05:26:32.341Z,6.35
2022-08-26T05:28:33.883Z,6.80
2022-08-26T05:30:38.101Z,7.18
2022-08-26T05:32:40.120Z,6.53
2022-08-26T05:34:42.924Z,6.50
2022-08-26T05:36:44.609Z,6.88
2022-08-26T05:38:46.451Z,6.68
2022-08-26T05:40:52.602Z,7.15
2022-08-26T05:42:55.077Z,6.63
2022-08-26T05:44:56.656Z,6.63
2022-08-26T05:46:58.148Z,6.55
2022-08-26T05:48:59.738Z,6.88
2022-08-26T05:51:04.965Z,6.95
2022-08-26T05:53:08.938Z,7.13
2022-08-26T05:55:10.481Z,7.07
2022-08-26T05:57:13.829Z,7.60
2022-08-26T05:59:16.083Z,7.28
2022-08-26T06:01:28.035Z,6.88
2022-08-26T06:03:31.653Z,7.20
2022-08-26T06:05:38.421Z,7.60
2022-08-26T06:07:59.290Z,8.00
2022-08-26T06:10:28.170Z,6.45
2022-08-26T06:12:22.367Z,7.57
2022-08-26T06:14:25.916Z,7.30
2022-08-26T06:16:28.400Z,7.10
2022-08-26T06:18:36.230Z,7.57
2022-08-26T06:20:43.494Z,7.15
2022-08-26T06:25:34.516Z,6.43
2022-08-26T06:27:36.751Z,7.05
2022-08-26T06:29:38.856Z,7.65
2022-08-26T06:31:40.356Z,7.15
2022-08-26T06:33:42.901Z,7.05
2022-08-26T06:35:46.810Z,6.57
2022-08-26T06:37:49.967Z,7.00
2022-08-26T06:39:51.547Z,7.40
2022-08-26T06:41:53.076Z,6.68
2022-08-26T06:43:54.670Z,6.63
2022-08-26T06:46:05.231Z,6.57
2022-08-26T06:48:07.639Z,6.95
2022-08-26T06:50:09.294Z,6.55
2022-08-26T06:52:11.258Z,6.90
2022-08-26T06:54:12.815Z,7.25
2022-08-26T06:56:17.313Z,7.00
2022-08-26T06:58:18.841Z,7.57
2022-08-26T07:00:21.369Z,7.18
2022-08-26T07:02:23.497Z,6.55
2022-08-26T07:04:29.949Z,6.75
2022-08-26T07:06:37.537Z,6.40
2022-08-26T07:08:40.914Z,7.40
2022-08-26T07:10:42.925Z,6.07
2022-08-26T07:12:47.258Z,6.40
2022-08-26T07:14:48.937Z,7.20
2022-08-26T07:16:50.962Z,6.57
2022-08-26T07:18:53.627Z,6.90
2022-08-26T07:20:55.118Z,6.63
2022-08-26T07:22:58.917Z,6.30
2022-08-26T07:25:00.489Z,7.18
2022-08-26T07:27:07.465Z,6.30
2022-08-26T07:29:12.496Z,6.25
2022-08-26T07:31:15.875Z,6.53
2022-08-26T07:33:17.986Z,5.43
2022-08-26T07:35:19.563Z,5.90
2022-08-26T07:37:21.063Z,5.47
2022-08-26T07:39:23.548Z,5.45
2022-08-26T07:41:25.775Z,6.35
2022-08-26T07:43:28.393Z,6.20
2022-08-26T07:45:30.866Z,6.65
2022-08-26T07:47:32.633Z,6.53
2022-08-26T07:49:34.481Z,6.70
2022-08-26T07:51:37.155Z,7.00
2022-08-26T07:53:39.852Z,5.82
2022-08-26T07:55:41.572Z,6.43
2022-08-26T07:57:43.191Z,6.53
2022-08-26T07:59:44.853Z,6.22
2022-08-26T08:01:47.579Z,5.95
2022-08-26T08:03:51.559Z,6.00
2022-08-26T08:05:53.347Z,6.53
2022-08-26T08:08:21.865Z,6.18
2022-08-26T08:10:21.037Z,6.05
2022-08-26T08:12:22.826Z,6.28
2022-08-26T08:14:24.316Z,5.85
2022-08-26T08:16:28.265Z,6.18
2022-08-26T08:18:34.134Z,5.82
2022-08-26T08:20:36.502Z,6.00
2022-08-26T08:22:38.140Z,5.88
2022-08-26T08:24:39.626Z,5.88
2022-08-26T08:26:41.796Z,5.78
2022-08-26T08:28:43.462Z,6.22
2022-08-26T08:30:45.665Z,5.32
2022-08-26T08:32:47.607Z,6.10
2022-08-26T08:34:49.675Z,5.80
2022-08-26T08:36:53.526Z,6.65
2022-08-26T08:38:55.850Z,5.78
2022-08-26T08:40:57.326Z,6.50
2022-08-26T08:43:13.516Z,6.05
2022-08-26T08:45:22.210Z,6.10
2022-08-26T08:47:29.529Z,5.82
2022-08-26T08:49:34.213Z,5.95
2022-08-26T08:51:40.404Z,5.70
2022-08-26T08:53:45.579Z,5.50
2022-08-26T08:56:01.955Z,6.75
2022-08-26T08:58:12.076Z,7.68
2022-08-26T09:00:19.680Z,5.88
2022-08-26T09:02:43.038Z,6.60
2022-08-26T09:05:07.878Z,5.95
2022-08-26T09:07:16.613Z,6.15
2022-08-26T09:09:39.586Z,5.40
2022-08-26T09:11:41.114Z,5.30
2022-08-26T09:13:49.978Z,5.35
2022-08-26T09:16:04.443Z,5.45
2022-08-26T09:18:32.110Z,5.38
2022-08-26T09:20:48.940Z,6.60
2022-08-26T09:22:51.677Z,5.82
2022-08-26T09:24:53.262Z,6.05
2022-08-26T09:26:57.686Z,5.28
2022-08-26T09:29:00.370Z,5.65
2022-08-26T09:31:24.244Z,5.13
2022-08-26T09:33:31.403Z,5.50
2022-08-26T09:35:36.594Z,5.47
2022-08-26T09:37:40.571Z,6.07
2022-08-26T09:39:42.670Z,5.57
2022-08-26T09:41:44.165Z,5.65
2022-08-26T09:44:09.170Z,5.80
2022-08-26T09:46:28.780Z,4.95
2022-08-26T09:48:36.870Z,5.38
2022-08-26T09:50:59.869Z,5.68
2022-08-26T09:53:16.596Z,5.53
2022-08-26T09:55:22.700Z,5.05
2022-08-26T09:57:34.241Z,5.50
2022-08-26T09:59:36.083Z,5.72
2022-08-26T10:01:44.712Z,5.28
2022-08-26T10:03:47.102Z,5.57
2022-08-26T10:06:02.584Z,4.95
2022-08-26T10:08:19.896Z,5.22
2022-08-26T10:10:33.477Z,5.00
2022-08-26T10:12:44.445Z,5.40
2022-08-26T10:14:51.991Z,5.18
2022-08-26T10:17:01.142Z,5.63
2022-08-26T10:19:10.583Z,5.32
2022-08-26T10:21:21.162Z,5.80
2022-08-26T10:23:27.766Z,6.10
2022-08-26T10:25:34.397Z,5.90
2022-08-26T10:27:53.924Z,5.63
2022-08-26T10:30:03.842Z,4.47
2022-08-26T10:32:13.821Z,5.07
2022-08-26T10:34:17.824Z,4.70
2022-08-26T10:37:05.051Z,4.38
2022-08-26T10:39:08.063Z,3.97
2022-08-26T10:41:24.144Z,5.18
2022-08-26T10:43:32.768Z,4.22
2022-08-26T10:45:38.691Z,4.35
2022-08-26T10:47:55.665Z,4.70
2022-08-26T10:50:03.339Z,4.53
2022-08-26T10:52:18.319Z,3.53
2022-08-26T10:54:31.539Z,4.28
2022-08-26T10:56:46.842Z,4.07
2022-08-26T10:58:57.840Z,4.63
2022-08-26T11:01:42.156Z,4.45
2022-08-26T11:04:10.358Z,4.28
2022-08-26T11:06:18.368Z,4.30
2022-08-26T11:08:19.838Z,3.77
2022-08-26T11:10:22.842Z,3.97
2022-08-26T11:12:37.471Z,4.13
2022-08-26T11:14:53.214Z,4.22
2022-08-26T11:16:59.783Z,4.88
2022-08-26T11:19:01.624Z,4.60
2022-08-26T11:21:03.618Z,5.40
2022-08-26T11:23:20.617Z,5.78
2022-08-26T11:25:29.933Z,6.03
2022-08-26T11:27:35.338Z,6.07
2022-08-26T11:29:57.498Z,6.10
2022-08-26T11:32:00.072Z,6.18
2022-08-26T11:34:07.166Z,6.65
2022-08-26T11:36:26.066Z,6.15
2022-08-26T11:38:29.496Z,6.18
2022-08-26T11:40:35.361Z,5.95
2022-08-26T11:42:36.971Z,6.97
2022-08-26T11:44:49.180Z,6.28
2022-08-26T11:46:57.471Z,6.35
2022-08-26T11:49:05.282Z,6.00
2022-08-26T11:51:13.590Z,6.10
2022-08-26T11:53:19.233Z,5.80
2022-08-26T11:55:23.470Z,5.40
2022-08-26T11:57:26.705Z,5.68
2022-08-26T11:59:38.726Z,5.60
2022-08-26T12:01:49.032Z,7.18
2022-08-26T12:03:52.237Z,6.07
2022-08-26T12:05:54.444Z,5.32
2022-08-26T12:07:57.224Z,5.88
2022-08-26T12:10:02.266Z,5.22
2022-08-26T12:12:18.488Z,5.90
2022-08-26T12:14:25.167Z,5.88
2022-08-26T12:16:40.420Z,6.15
2022-08-26T12:18:42.011Z,5.95
2022-08-26T12:20:46.506Z,6.57
2022-08-26T12:22:48.421Z,6.13
2022-08-26T12:24:53.812Z,6.80
2022-08-26T12:27:26.897Z,5.50
2022-08-26T12:29:29.767Z,5.68
2022-08-26T12:31:41.005Z,6.53
2022-08-26T12:33:42.985Z,6.13
2022-08-26T12:35:44.908Z,6.95
2022-08-26T12:37:50.804Z,6.00
2022-08-26T12:39:52.809Z,5.60
2022-08-26T12:42:02.624Z,5.68
2022-08-26T12:44:04.119Z,6.45
2022-08-26T12:46:06.961Z,6.30
2022-08-26T12:48:36.249Z,5.97
2022-08-26T12:50:44.471Z,5.28
2022-08-26T12:55:19.916Z,6.03
2022-08-26T12:57:35.090Z,6.85
2022-08-26T12:59:36.670Z,6.80
2022-08-26T13:01:43.543Z,6.13
2022-08-26T13:03:46.346Z,7.40
2022-08-26T13:05:47.949Z,7.32
2022-08-26T13:08:09.267Z,5.88
2022-08-26T13:10:36.301Z,5.35
2022-08-26T13:12:38.144Z,4.60
2022-08-26T13:14:40.465Z,5.22
2022-08-26T13:16:42.663Z,6.25
2022-08-26T13:18:44.171Z,5.93
2022-08-26T13:20:45.746Z,4.65
2022-08-26T13:22:48.753Z,5.18
2022-08-26T13:25:00.133Z,5.35
2022-08-26T13:27:03.195Z,5.18
2022-08-26T13:29:09.578Z,5.82
2022-08-26T13:31:13.641Z,5.43
2022-08-26T13:33:16.732Z,5.13
2022-08-26T13:35:19.766Z,5.15
2022-08-26T13:37:22.256Z,5.63
2022-08-26T13:39:36.747Z,4.75
2022-08-26T13:41:38.436Z,5.38
2022-08-26T13:43:39.948Z,5.85
2022-08-26T13:45:41.424Z,6.10
2022-08-26T13:47:42.916Z,6.47
2022-08-26T13:49:44.480Z,6.97
2022-08-26T13:51:45.990Z,7.85
2022-08-26T13:53:47.649Z,7.47
2022-08-26T13:55:49.199Z,7.88
2022-08-26T13:57:50.690Z,7.72
2022-08-26T13:59:53.935Z,7.90
2022-08-26T14:01:55.474Z,7.88
2022-08-26T14:03:57.371Z,7.32
2022-08-26T14:05:59.360Z,8.77
2022-08-26T14:08:01.025Z,8.25
2022-08-26T14:10:02.882Z,8.82
2022-08-26T14:12:04.469Z,9.63
2022-08-26T14:14:05.980Z,8.60
2022-08-26T14:16:20.666Z,8.65
2022-08-26T14:18:29.289Z,8.70
2022-08-26T14:20:32.233Z,9.38
2022-08-26T14:22:33.904Z,8.98
2022-08-26T14:24:35.389Z,9.00
2022-08-26T14:26:36.895Z,9.27
2022-08-26T14:28:38.540Z,9.77
2022-08-26T14:30:42.091Z,9.88
2022-08-26T14:32:46.816Z,9.57
2022-08-26T14:34:48.848Z,9.70
2022-08-26T14:36:50.321Z,9.55
2022-08-26T14:38:52.208Z,9.98
2022-08-26T14:40:53.700Z,8.70
2022-08-26T14:42:55.296Z,11.07
2022-08-26T14:45:02.777Z,10.23
2022-08-26T14:47:06.626Z,9.93
2022-08-26T14:49:10.704Z,9.52
2022-08-26T14:51:12.431Z,9.93
2022-08-26T14:53:33.701Z,8.80
2022-08-26T14:55:38.677Z,7.88
2022-08-26T14:57:40.159Z,9.90
2022-08-26T14:59:49.624Z,8.45
2022-08-26T15:01:52.650Z,8.95
2022-08-26T15:03:54.210Z,8.57
2022-08-26T15:05:55.706Z,8.65
2022-08-26T15:07:57.226Z,8.00
2022-08-26T15:09:58.735Z,7.88
2022-08-26T15:12:00.988Z,8.05
2022-08-26T15:14:02.775Z,7.95
2022-08-26T15:16:04.468Z,7.75
2022-08-26T15:18:06.073Z,7.72
2022-08-26T15:20:09.280Z,7.63
2022-08-26T15:22:10.762Z,7.40
2022-08-26T15:24:13.056Z,6.57
2022-08-26T15:26:16.476Z,6.85
2022-08-26T15:28:17.972Z,7.45
2022-08-26T15:30:19.477Z,6.22
2022-08-26T15:32:21.079Z,6.93
2022-08-26T15:34:22.703Z,6.30
2022-08-26T15:36:24.247Z,6.72
2022-08-26T15:38:28.001Z,6.47
2022-08-26T15:40:29.676Z,6.28
2022-08-26T15:42:31.430Z,6.90
2022-08-26T15:44:34.093Z,7.80
2022-08-26T15:46:37.549Z,7.60
2022-08-26T15:48:40.760Z,6.80
2022-08-26T15:50:50.705Z,7.13
2022-08-26T15:52:52.189Z,6.47
2022-08-26T15:54:53.746Z,7.40
2022-08-26T15:56:55.259Z,7.10
2022-08-26T15:58:57.526Z,7.78
2022-08-26T16:01:00.269Z,7.95
2022-08-26T16:03:01.762Z,8.13
2022-08-26T16:05:03.665Z,8.43
2022-08-26T16:07:05.309Z,8.10
2022-08-26T16:09:08.000Z,8.18
2022-08-26T16:11:09.490Z,7.30
2022-08-26T16:13:14.762Z,7.47
2022-08-26T16:15:16.941Z,6.95
2022-08-26T16:17:18.489Z,6.50
2022-08-26T16:19:20.050Z,6.75
2022-08-26T16:21:24.634Z,6.57
2022-08-26T16:23:26.254Z,7.10
2022-08-26T16:25:28.880Z,6.63
2022-08-26T16:27:30.585Z,6.88
2022-08-26T16:29:32.540Z,6.25
2022-08-26T16:31:34.663Z,5.80
2022-08-26T16:33:37.831Z,6.00
2022-08-26T16:35:39.819Z,4.90
2022-08-26T16:37:42.097Z,4.95
2022-08-26T16:39:45.136Z,4.50
2022-08-26T16:41:46.885Z,4.32
2022-08-26T16:43:48.641Z,3.60
2022-08-26T16:45:50.139Z,3.83
2022-08-26T16:47:52.446Z,3.50
2022-08-26T16:49:54.010Z,3.00
2022-08-26T16:51:55.571Z,2.80
2022-08-26T16:54:01.453Z,2.70
2022-08-26T16:56:03.142Z,3.03
2022-08-26T16:58:04.684Z,2.50
2022-08-26T17:00:12.539Z,2.95
2022-08-26T17:02:14.009Z,2.35
2022-08-26T17:04:15.679Z,2.55
2022-08-26T17:06:17.399Z,2.65
2022-08-26T17:08:28.390Z,2.35
2022-08-26T17:10:31.645Z,2.33
2022-08-26T17:12:36.100Z,2.40
2022-08-26T17:14:37.569Z,2.22
2022-08-26T17:16:39.612Z,2.55
2022-08-26T17:18:41.499Z,1.88
2022-08-26T17:20:45.055Z,2.25
2022-08-26T17:22:48.583Z,1.77
2022-08-26T17:24:50.066Z,1.80
2022-08-26T17:26:53.542Z,1.80
2022-08-26T17:28:58.099Z,1.90
2022-08-26T17:31:00.106Z,1.50
2022-08-26T17:33:01.665Z,1.90
2022-08-26T17:35:13.773Z,1.80
2022-08-26T17:37:15.264Z,1.67
2022-08-26T17:39:16.911Z,1.75
2022-08-26T17:41:18.945Z,1.63
2022-08-26T17:43:20.645Z,1.85
2022-08-26T17:45:22.733Z,1.50
2022-08-26T17:47:24.335Z,1.65
2022-08-26T17:49:25.916Z,2.08
2022-08-26T17:51:27.722Z,1.60
2022-08-26T17:53:29.420Z,1.60
2022-08-26T17:55:30.987Z,1.63
2022-08-26T17:57:32.662Z,1.27
2022-08-26T17:59:42.343Z,1.27
2022-08-26T18:01:44.286Z,1.30
2022-08-26T18:03:45.976Z,1.33
2022-08-26T18:05:49.786Z,1.20
2022-08-26T18:07:51.634Z,1.10
2022-08-26T18:09:53.194Z,1.30
2022-08-26T18:11:54.691Z,1.27
2022-08-26T18:13:56.187Z,1.30
2022-08-26T18:15:57.753Z,1.10
2022-08-26T18:17:59.872Z,1.33
2022-08-26T18:20:01.959Z,1.60
2022-08-26T18:22:03.564Z,1.20
2022-08-26T18:24:05.594Z,1.00
2022-08-26T18:26:07.131Z,1.10
2022-08-26T18:28:13.011Z,1.30
2022-08-26T18:30:20.709Z,1.60
2022-08-26T18:32:22.210Z,1.23
2022-08-26T18:34:23.797Z,1.17
2022-08-26T18:36:36.597Z,1.15
2022-08-26T18:38:38.125Z,1.23
2022-08-26T18:40:45.747Z,1.40
2022-08-26T18:42:47.221Z,0.80
2022-08-26T18:44:55.561Z,1.25
2022-08-26T18:46:57.237Z,1.30
2022-08-26T18:48:58.935Z,1.38
2022-08-26T18:51:00.599Z,1.00
2022-08-26T18:53:02.541Z,1.17
2022-08-26T18:55:04.435Z,1.30
2022-08-26T18:57:05.942Z,1.30
2022-08-26T18:59:09.311Z,1.00
2022-08-26T19:01:12.438Z,1.90
2022-08-26T19:03:18.392Z,1.10
2022-08-26T19:05:21.014Z,1.35
2022-08-26T19:07:22.873Z,1.02
2022-08-26T19:09:26.314Z,1.13
2022-08-26T19:11:31.585Z,1.30
2022-08-26T19:13:35.479Z,1.50
2022-08-26T19:15:39.381Z,1.27
2022-08-26T19:17:41.354Z,1.10
2022-08-26T19:19:42.919Z,1.25
2022-08-26T19:21:47.241Z,1.50
2022-08-26T19:23:49.434Z,1.60
2022-08-26T19:25:53.214Z,1.20
2022-08-26T19:27:55.988Z,1.08
2022-08-26T19:29:58.386Z,2.10
2022-08-26T19:31:59.997Z,1.33
2022-08-26T19:35:02.849Z,1.52
2022-08-26T19:42:53.496Z,1.58
2022-08-26T19:45:24.388Z,1.13
2022-08-26T19:47:55.777Z,0.98
2022-08-26T19:49:57.441Z,1.30
2022-08-26T19:51:59.320Z,1.40
2022-08-26T19:54:01.661Z,1.85
2022-08-26T19:56:03.357Z,1.20
2022-08-26T19:58:05.233Z,1.25
2022-08-26T20:00:14.667Z,1.58
2022-08-26T20:02:16.573Z,1.45
2022-08-26T20:04:18.196Z,1.50
2022-08-26T20:06:20.327Z,1.58
2022-08-26T20:08:22.827Z,1.63
2022-08-26T20:10:24.728Z,1.10
2022-08-26T20:12:27.494Z,1.70
2022-08-26T20:14:29.954Z,1.30
2022-08-26T20:16:32.752Z,1.58
2022-08-26T20:18:52.595Z,1.20
2022-08-26T20:21:12.492Z,1.40
2022-08-26T20:23:14.023Z,1.23
2022-08-26T20:25:16.077Z,1.88
2022-08-26T20:27:17.977Z,1.73
2022-08-26T20:29:19.676Z,1.00
2022-08-26T20:31:21.686Z,1.48
2022-08-26T20:33:23.219Z,1.58
2022-08-26T20:35:24.797Z,2.20
2022-08-26T20:37:26.579Z,1.40
2022-08-26T20:39:31.020Z,1.52
2022-08-26T20:41:32.898Z,1.50
2022-08-26T20:43:34.405Z,1.58
2022-08-26T20:45:36.015Z,1.38
2022-08-26T20:47:37.648Z,1.45
2022-08-26T20:49:39.117Z,1.70
2022-08-26T20:51:45.484Z,1.52
2022-08-26T20:53:47.552Z,1.50
2022-08-26T20:55:51.381Z,1.15
2022-08-26T20:57:52.988Z,1.50
2022-08-26T20:59:54.501Z,1.48
2022-08-26T21:01:56.189Z,2.13
2022-08-26T21:03:57.715Z,1.38
2022-08-26T21:05:59.544Z,1.77
2022-08-26T21:08:01.017Z,1.23
2022-08-26T21:10:03.135Z,2.40
2022-08-26T21:12:05.122Z,1.65
2022-08-26T21:14:15.903Z,1.25
2022-08-26T21:16:19.650Z,1.40
2022-08-26T21:18:21.180Z,2.00
2022-08-26T21:20:23.819Z,1.38
2022-08-26T21:22:25.406Z,1.80
2022-08-26T21:24:27.013Z,1.52
2022-08-26T21:26:28.875Z,1.70
2022-08-26T21:28:30.960Z,1.20
2022-08-26T21:30:34.189Z,1.35
2022-08-26T21:32:35.886Z,1.60
2022-08-26T21:34:37.353Z,1.30
2022-08-26T21:36:38.919Z,1.48
2022-08-26T21:38:41.295Z,1.20
2022-08-26T21:40:42.825Z,1.50
2022-08-26T21:42:44.340Z,1.67
2022-08-26T21:44:46.501Z,1.35
2022-08-26T21:46:55.678Z,1.30
2022-08-26T21:49:00.334Z,1.13
2022-08-26T21:51:04.355Z,1.17
2022-08-26T21:53:06.239Z,1.30
2022-08-26T21:55:11.576Z,1.88
2022-08-26T21:57:13.658Z,1.77
2022-08-26T21:59:17.741Z,2.08
2022-08-26T22:01:21.710Z,1.52
2022-08-26T22:03:23.222Z,1.27
2022-08-26T22:05:24.716Z,1.83
2022-08-26T22:07:26.201Z,1.48
2022-08-26T22:09:30.962Z,1.08
2022-08-26T22:11:32.481Z,1.63
2022-08-26T22:13:36.905Z,1.25
2022-08-26T22:15:40.479Z,1.45
2022-08-26T22:17:41.966Z,1.10
2022-08-26T22:19:46.215Z,1.10
2022-08-26T22:21:51.950Z,1.00
2022-08-26T22:23:57.887Z,1.50
2022-08-26T22:26:00.267Z,1.17
2022-08-26T22:28:01.972Z,1.42
2022-08-26T22:30:03.949Z,1.35
2022-08-26T22:32:05.722Z,1.30
2022-08-26T22:34:10.508Z,0.98
2022-08-26T22:36:27.108Z,1.23
2022-08-26T22:38:28.606Z,1.00
2022-08-26T22:40:30.237Z,1.08
2022-08-26T22:42:31.950Z,1.33
2022-08-26T22:44:36.359Z,1.20
2022-08-26T22:46:38.589Z,0.85
2022-08-26T22:48:40.075Z,1.17
2022-08-26T22:50:42.756Z,1.40
2022-08-26T22:52:44.291Z,0.75
2022-08-26T22:54:45.861Z,1.10
2022-08-26T22:56:47.406Z,1.10
2022-08-26T22:58:49.170Z,1.02
2022-08-26T23:00:50.749Z,1.23
2022-08-26T23:02:56.769Z,1.05
2022-08-26T23:04:58.279Z,0.80
2022-08-26T23:06:59.786Z,0.93
2022-08-26T23:09:01.274Z,0.90
2022-08-26T23:11:02.860Z,0.88
2022-08-26T23:13:07.634Z,1.10
2022-08-26T23:15:11.525Z,0.82
2022-08-26T23:17:14.259Z,1.00
2022-08-26T23:19:18.241Z,0.85
2022-08-26T23:21:19.787Z,0.70
2022-08-26T23:23:21.733Z,1.17
2022-08-26T23:25:23.276Z,0.68
2022-08-26T23:27:26.905Z,1.02
2022-08-26T23:29:29.109Z,0.95
2022-08-26T23:31:31.298Z,0.70
2022-08-26T23:33:51.452Z,0.73
2022-08-26T23:35:52.924Z,0.70
2022-08-26T23:37:55.869Z,1.08
2022-08-26T23:40:10.312Z,0.85
2022-08-26T23:42:12.699Z,0.60
2022-08-26T23:44:14.227Z,0.90
2022-08-26T23:46:16.034Z,0.88
2022-08-26T23:48:17.692Z,0.95
2022-08-26T23:50:45.670Z,0.85
2022-08-26T23:53:06.216Z,0.70
2022-08-26T23:55:08.306Z,0.73
2022-08-26T23:57:10.158Z,0.85
2022-08-26T23:59:12.028Z,1.00
